Observations for TEES-SIDE, United Kingdom (EGNV)

EGNV 172150Z 20005KT 9999 FEW045 01/M00 Q1020   
EGNV 172120Z 22005KT 9999 FEW043 01/M00 Q1020   
EGNV 172050Z 20006KT 9999 FEW040 02/M00 Q1020   
EGNV 172020Z VRB03KT 9999 FEW040 02/01 Q1020
EGNV 171950Z 24007KT 9999 FEW040 02/M00 Q1020   
EGNV 171920Z 21007KT 9999 FEW040 02/00 Q1020
EGNV 171850Z 17004KT 9999 FEW035 03/01 Q1020
EGNV 171820Z 21008KT 9999 FEW035 03/01 Q1019
EGNV 171750Z 18007KT 9999 FEW035 04/02 Q1019
EGNV 171720Z 20007KT 9999 FEW035 06/02 Q1018
EGNV 171650Z 19008KT 9999 FEW035 07/03 Q1018
EGNV 171620Z 21009KT 9999 FEW025 07/03 Q1018
EGNV 171550Z 20008KT 170V230 9999 VCSH FEW025 07/03 Q1018   
EGNV 171520Z 18008KT 9999 VCSH FEW018 SCT040 06/04 Q1018
EGNV 171450Z 17010KT 9999 FEW012 SCT032 07/04 Q1018 
EGNV 171420Z 18011KT 9999 FEW008 SCT035 07/04 Q1018 
EGNV 171350Z 17011KT 9999 FEW009 SCT030 06/04 Q1018 
EGNV 171320Z 17011KT 9999 FEW007 SCT028 06/03 Q1018 
EGNV 171250Z 18011KT 9999 8000SE FEW014 SCT028 05/03 Q1018  
EGNV 171220Z 19012KT 9999 9000S VCSH FEW010 SCT026 05/03 Q1018  
EGNV 171150Z 17010KT 9999 FEW020 SCT030 06/03 Q1018 
EGNV 171050Z 17012KT 9999 FEW024 SCT030 04/02 Q1018 
EGNV 170950Z 17011KT 9999 -RA SCT024 SCT042 03/02 Q1018 
EGNV 170920Z 18010KT 9999 -RA FEW018 SCT024 04/01 Q1018 
EGNV 170850Z 17010KT 9999 -RA SCT024 03/01 Q1018
EGNV 170820Z 18012KT 9000 -RA SCT022 03/01 Q1018
EGNV 170750Z 18012KT 9999 -RA SCT030 04/01 Q1017
EGNV 170720Z 18013KT 9999 FEW035 04/01 Q1017
EGNV 170650Z 18008KT 9999 FEW030 03/01 Q1017
EGNV 170620Z 15005KT 100V180 9999 FEW030 03/01 Q1017
EGNV 170550Z 17010KT 9999 FEW030 03/00 Q1017